La Ceiba, Honduras

8:43 PM CST on August 30, 2014 (GMT -0600)
Goloson International | Change Station
CLOSE
Current Station
Airport
Location: La Ceiba,
Elevation: 46 ft
Nearby Weather Stations

Elev 46 ft 15.75 °N, 86.84 °W | Updated 43 minutes ago

Mostly Cloudy
Mostly Cloudy
75 °F
Feels Like 75 °F
N
4
Wind Variable Wind from South

Today
High -- | Low -- °F
--% Chance of Precip.
Yesterday
High -- | Low -- °F
Precip. -- in
5:34 AM 6:01 PM
Waxing Crescent, 26% visible
Pressure 29.83 in
Visibility 6.2 miles
Clouds Scattered Clouds 2600 ft
Scattered Clouds 8000 ft
Mostly Cloudy 20000 ft
Dew Point 73 °F
Humidity 94%
Rainfall 0.00 in
Snow Depth Not available.
UV 0 out of 12
Pollen Not available.
Air Quality Not available.
Flu Activity Not available.
METAR MHLC 310200Z 19003KT 9999 SCT026 SCT080 BKN200 24/23 Q1010 A2983 NOSIG

More Conditions Fewer Conditions

Pressure 29.83 in
Visibility 6.2 miles
Clouds Scattered Clouds 2600 ft
Scattered Clouds 8000 ft
Mostly Cloudy 20000 ft
Dew Point 73 °F
Humidity 94%
Rainfall 0.00 in
Snow Depth Not available.
UV 0 out of 12
Pollen Not available.
Air Quality Not available.
Flu Activity Not available.
METAR MHLC 310200Z 19003KT 9999 SCT026 SCT080 BKN200 24/23 Q1010 A2983 NOSIG

More Conditions Fewer Conditions

10-Day Weather Forecast

Almanac

Astronomy

Aug. 30, 2014 Rise Set
Actual Time 5:34 AM CST 6:01 PM CST
Civil Twilight 5:12 AM CST 6:23 PM CST
Nautical Twilight 4:47 AM CST 6:48 PM CST
Astronomical Twilight 4:21 AM CST 7:14 PM CST
Moon 9:33 AM CST (8/30) 9:26 PM CST (8/30)
Length of Visible Light 13h 10m
Length of Day
12h 26m
Tomorrow will be 0m 50s shorter.
Waxing Crescent, 26% of the Moon is Illuminated
Today
Waxing Crescent
Sep 2
First Quarter
Sep 8
Full
Sep 15
Last Quarter
Sep 24
New

Today's Extremes

Country Highs Country Lows

Community

WunderPhotos

Upload Photos

1,748,749 photos uploaded!

Nearby

Snow Depth

Not available.

Earthquake Activity

City Distance Mag. Time & Date
No recent earthquake activity has been reported nearby.
Minimum magnitude displayed is 2.5.

Coastal Water Temperatures

Place Temperature
No Stations Reporting

Nearby Weather Stations